createdAt,value
2018-02-22T00:00:00.860Z,19.80
2018-02-22T00:02:27.182Z,19.33
2018-02-22T00:04:53.708Z,18.67
2018-02-22T00:07:19.969Z,18.83
2018-02-22T00:09:46.241Z,17.07
2018-02-22T00:12:12.516Z,20.13
2018-02-22T00:14:41.548Z,19.73
2018-02-22T00:17:07.825Z,19.20
2018-02-22T00:19:34.171Z,19.47
2018-02-22T00:22:00.431Z,20.53
2018-02-22T00:24:26.706Z,19.50
2018-02-22T00:27:00.706Z,20.07
2018-02-22T00:29:26.997Z,19.97
2018-02-22T00:31:53.337Z,19.53
2018-02-22T00:34:19.657Z,20.57
2018-02-22T00:36:46.628Z,20.13
2018-02-22T00:39:19.993Z,17.90
2018-02-22T00:41:46.284Z,19.27
2018-02-22T00:44:13.265Z,17.70
2018-02-22T00:46:39.576Z,18.03
2018-02-22T00:49:06.609Z,18.00
2018-02-22T00:51:32.887Z,19.20
2018-02-22T00:53:59.167Z,19.77
2018-02-22T00:56:25.449Z,19.27
2018-02-22T00:59:14.328Z,19.83
2018-02-22T01:01:41.284Z,20.60
2018-02-22T01:04:08.242Z,19.10
2018-02-22T01:06:35.278Z,18.53
2018-02-22T01:09:01.660Z,18.57
2018-02-22T01:11:28.644Z,18.87
2018-02-22T01:13:55.933Z,17.53
2018-02-22T01:16:22.245Z,18.10
2018-02-22T01:18:48.461Z,18.50
2018-02-22T01:21:15.453Z,18.20
2018-02-22T01:23:41.668Z,19.97
2018-02-22T01:26:07.927Z,20.80
2018-02-22T01:28:34.168Z,19.83
2018-02-22T01:31:00.394Z,19.97
2018-02-22T01:33:26.642Z,20.23
2018-02-22T01:35:52.922Z,21.60
2018-02-22T01:38:19.177Z,19.53
2018-02-22T01:40:45.422Z,19.30
2018-02-22T01:43:11.714Z,19.77
2018-02-22T01:45:37.980Z,17.87
2018-02-22T01:48:04.208Z,20.00
2018-02-22T01:50:30.460Z,20.03
2018-02-22T01:53:00.959Z,19.97
2018-02-22T01:55:27.290Z,20.03
2018-02-22T01:57:54.330Z,20.23
2018-02-22T02:00:20.627Z,19.83
2018-02-22T02:02:46.859Z,18.87
2018-02-22T02:05:13.116Z,17.60
2018-02-22T02:07:39.435Z,19.50
2018-02-22T02:10:05.692Z,18.43
2018-02-22T02:12:31.944Z,18.20
2018-02-22T02:14:58.171Z,16.73
2018-02-22T02:17:24.469Z,18.70
2018-02-22T02:19:50.710Z,18.10
2018-02-22T02:22:21.156Z,18.10
2018-02-22T02:24:47.355Z,18.53
2018-02-22T02:27:13.601Z,14.73
2018-02-22T02:29:39.843Z,16.70
2018-02-22T02:32:06.110Z,17.43
2018-02-22T02:34:32.355Z,16.67
2018-02-22T02:36:58.616Z,17.83
2018-02-22T02:39:25.592Z,18.07
2018-02-22T02:41:51.878Z,17.40
2018-02-22T02:44:18.142Z,17.73
2018-02-22T02:46:44.420Z,17.73
2018-02-22T02:49:10.644Z,19.17
2018-02-22T02:51:37.690Z,17.83
2018-02-22T02:54:03.974Z,18.57
2018-02-22T02:56:30.186Z,18.67
2018-02-22T02:58:57.243Z,17.10
2018-02-22T03:01:24.204Z,17.90
2018-02-22T03:03:50.508Z,18.80
2018-02-22T03:06:16.801Z,18.63
2018-02-22T03:08:43.081Z,17.17
2018-02-22T03:11:09.345Z,18.53
2018-02-22T03:13:39.412Z,19.30
2018-02-22T03:16:06.415Z,18.07
2018-02-22T03:18:32.665Z,17.87
2018-02-22T03:20:58.886Z,17.93
2018-02-22T03:23:25.235Z,18.33
2018-02-22T03:25:52.302Z,18.67
2018-02-22T03:28:18.584Z,18.30
2018-02-22T03:30:45.595Z,18.67
2018-02-22T03:33:11.873Z,18.83
2018-02-22T03:35:38.114Z,18.90
2018-02-22T03:38:04.328Z,19.70
2018-02-22T03:40:30.625Z,19.23
2018-02-22T03:42:56.930Z,18.50
2018-02-22T03:45:23.208Z,22.97
2018-02-22T03:47:50.236Z,18.77
2018-02-22T03:50:17.204Z,19.23
2018-02-22T03:52:43.466Z,18.33
2018-02-22T03:55:09.741Z,17.83
2018-02-22T03:57:36.068Z,18.83
2018-02-22T04:00:09.853Z,19.37
2018-02-22T04:02:36.223Z,17.97
2018-02-22T04:05:02.493Z,18.97
2018-02-22T04:07:28.738Z,17.50
2018-02-22T04:09:54.981Z,19.13
2018-02-22T04:12:21.394Z,18.10
2018-02-22T04:14:47.764Z,20.33
2018-02-22T04:17:13.990Z,18.73
2018-02-22T04:19:40.270Z,19.47
2018-02-22T04:22:06.553Z,19.00
2018-02-22T04:24:33.554Z,20.93
2018-02-22T04:26:59.812Z,20.83
2018-02-22T04:29:26.043Z,19.73
2018-02-22T04:31:52.380Z,21.57
2018-02-22T04:34:18.721Z,19.10
2018-02-22T04:36:45.145Z,21.47
2018-02-22T04:39:11.437Z,20.00
2018-02-22T04:41:37.678Z,19.97
2018-02-22T04:44:03.951Z,18.67
2018-02-22T04:46:30.962Z,20.53
2018-02-22T04:48:58.039Z,18.90
2018-02-22T04:51:24.440Z,18.63
2018-02-22T04:53:50.741Z,21.60
2018-02-22T04:56:17.742Z,20.00
2018-02-22T04:58:44.010Z,20.20
2018-02-22T05:01:10.224Z,19.40
2018-02-22T05:03:36.483Z,19.17
2018-02-22T05:06:02.698Z,20.83
2018-02-22T05:08:28.982Z,18.77
2018-02-22T05:10:55.234Z,19.57
2018-02-22T05:13:21.551Z,19.50
2018-02-22T05:15:47.809Z,19.00
2018-02-22T05:18:14.047Z,19.43
2018-02-22T05:20:40.331Z,18.40
2018-02-22T05:23:06.639Z,19.07
2018-02-22T05:25:32.905Z,19.30
2018-02-22T05:27:59.848Z,18.97
2018-02-22T05:30:26.125Z,19.67
2018-02-22T05:32:52.427Z,19.80
2018-02-22T05:35:18.665Z,18.87
2018-02-22T05:37:44.985Z,24.70
2018-02-22T05:40:11.229Z,19.50
2018-02-22T05:42:37.547Z,19.70
2018-02-22T05:45:03.807Z,18.17
2018-02-22T05:47:30.112Z,19.17
2018-02-22T05:49:57.196Z,21.13
2018-02-22T05:52:23.470Z,20.23
2018-02-22T05:54:50.778Z,20.73
2018-02-22T05:57:17.760Z,19.70
2018-02-22T05:59:43.983Z,19.70
2018-02-22T06:02:10.259Z,20.20
2018-02-22T06:04:36.517Z,20.30
2018-02-22T06:07:02.792Z,20.23
2018-02-22T06:12:23.436Z,22.27
2018-02-22T06:14:49.682Z,21.40
2018-02-22T06:17:15.914Z,21.63
2018-02-22T06:19:42.171Z,22.33
2018-02-22T06:22:08.446Z,22.93
2018-02-22T06:24:34.698Z,23.23
2018-02-22T06:27:01.030Z,25.10
2018-02-22T06:29:27.320Z,26.50
2018-02-22T06:31:53.534Z,25.50
2018-02-22T06:34:19.853Z,25.23
2018-02-22T06:36:46.257Z,24.40
2018-02-22T06:39:12.460Z,24.53
2018-02-22T06:41:38.728Z,23.87
2018-02-22T06:44:04.941Z,25.23
2018-02-22T06:46:31.210Z,25.07
2018-02-22T06:48:57.510Z,24.70
2018-02-22T06:51:23.791Z,23.73
2018-02-22T06:53:50.094Z,24.03
2018-02-22T06:56:16.367Z,24.00
2018-02-22T06:58:49.382Z,23.70
2018-02-22T07:01:16.394Z,22.27
2018-02-22T07:03:42.702Z,24.67
2018-02-22T07:06:09.733Z,26.13
2018-02-22T07:08:35.948Z,25.57
2018-02-22T07:11:02.300Z,26.70
2018-02-22T07:13:28.639Z,25.23
2018-02-22T07:15:54.872Z,24.40
2018-02-22T07:18:21.226Z,25.33
2018-02-22T07:20:47.456Z,28.73
2018-02-22T07:23:16.888Z,25.37
2018-02-22T07:25:40.858Z,28.37
2018-02-22T07:28:07.121Z,25.67
2018-02-22T07:30:33.365Z,23.90
2018-02-22T07:32:59.662Z,24.57
2018-02-22T07:35:34.330Z,26.27
2018-02-22T07:38:00.645Z,25.23
2018-02-22T07:40:26.978Z,24.53
2018-02-22T07:42:53.255Z,23.63
2018-02-22T07:45:19.531Z,24.77
2018-02-22T07:47:46.529Z,25.00
2018-02-22T07:50:21.054Z,24.43
2018-02-22T07:52:47.473Z,25.77
2018-02-22T07:55:14.454Z,25.43
2018-02-22T07:57:41.492Z,25.87
2018-02-22T08:00:08.619Z,24.07
2018-02-22T08:02:35.922Z,21.50
2018-02-22T08:05:03.039Z,19.73
2018-02-22T08:07:29.258Z,19.20
2018-02-22T08:09:56.104Z,20.07
2018-02-22T08:12:22.788Z,16.53
2018-02-22T08:14:49.248Z,18.40
2018-02-22T08:17:15.772Z,18.17
2018-02-22T08:19:42.283Z,18.87
2018-02-22T08:22:09.296Z,17.77
2018-02-22T08:24:35.741Z,17.73
2018-02-22T08:27:06.831Z,17.20
2018-02-22T08:29:41.358Z,17.00
2018-02-22T08:32:07.588Z,16.37
2018-02-22T08:34:33.825Z,16.43
2018-02-22T08:37:00.115Z,16.00
2018-02-22T08:39:26.390Z,15.03
2018-02-22T08:41:52.743Z,15.13
2018-02-22T08:44:19.112Z,14.63
2018-02-22T08:46:46.115Z,14.63
2018-02-22T08:49:12.361Z,14.90
2018-02-22T08:51:38.659Z,14.97
2018-02-22T08:54:04.884Z,14.37
2018-02-22T08:56:31.222Z,14.33
2018-02-22T08:58:58.585Z,15.23
2018-02-22T09:01:24.903Z,14.53
2018-02-22T09:03:51.190Z,14.87
2018-02-22T09:06:17.447Z,15.80
2018-02-22T09:08:44.463Z,15.47
2018-02-22T09:11:10.694Z,15.80
2018-02-22T09:13:36.959Z,15.33
2018-02-22T09:16:05.265Z,14.40
2018-02-22T09:18:31.535Z,15.27
2018-02-22T09:20:58.536Z,14.93
2018-02-22T09:23:24.862Z,14.13
2018-02-22T09:25:51.298Z,14.83
2018-02-22T09:28:17.610Z,13.53
2018-02-22T09:30:44.681Z,13.20
2018-02-22T09:33:11.674Z,13.43
2018-02-22T09:35:37.952Z,13.20
2018-02-22T09:38:04.154Z,13.83
2018-02-22T09:40:36.777Z,13.60
2018-02-22T09:43:03.059Z,13.60
2018-02-22T09:45:30.087Z,13.50
2018-02-22T09:47:56.387Z,12.67
2018-02-22T09:50:22.634Z,13.10
2018-02-22T09:52:48.960Z,13.10
2018-02-22T09:55:15.921Z,13.67
2018-02-22T09:57:42.262Z,13.90
2018-02-22T10:00:08.509Z,13.33
2018-02-22T10:02:34.840Z,12.70
2018-02-22T10:05:01.141Z,11.73
2018-02-22T10:07:27.513Z,12.80
2018-02-22T10:09:54.627Z,10.77
2018-02-22T10:12:21.198Z,10.87
2018-02-22T10:14:48.368Z,9.93
2018-02-22T10:17:15.428Z,10.53
2018-02-22T10:19:41.714Z,10.13
2018-02-22T10:22:08.061Z,10.13
2018-02-22T10:24:34.315Z,10.57
2018-02-22T10:27:00.559Z,9.23
2018-02-22T10:29:27.236Z,10.63
2018-02-22T10:31:53.510Z,10.27
2018-02-22T10:34:19.835Z,9.83
2018-02-22T10:36:46.305Z,10.57
2018-02-22T10:39:12.616Z,8.70
2018-02-22T10:41:38.949Z,9.00
2018-02-22T10:44:05.360Z,9.13
2018-02-22T10:46:31.747Z,9.80
2018-02-22T10:48:58.761Z,9.07
2018-02-22T10:51:25.042Z,9.67
2018-02-22T10:53:51.276Z,9.87
2018-02-22T10:56:17.749Z,9.97
2018-02-22T10:58:52.331Z,12.13
2018-02-22T11:01:24.902Z,10.67
2018-02-22T11:03:51.204Z,11.17
2018-02-22T11:06:17.482Z,10.70
2018-02-22T11:08:43.799Z,10.23
2018-02-22T11:11:14.761Z,10.47
2018-02-22T11:13:42.686Z,9.43
2018-02-22T11:16:12.045Z,9.20
2018-02-22T11:18:38.414Z,9.13
2018-02-22T11:21:04.809Z,8.77
2018-02-22T11:23:31.140Z,8.93
2018-02-22T11:25:58.313Z,8.77
2018-02-22T11:28:24.633Z,8.73
2018-02-22T11:30:54.504Z,8.77
2018-02-22T11:33:21.015Z,8.50
2018-02-22T11:35:47.289Z,7.97
2018-02-22T11:38:13.688Z,8.37
2018-02-22T11:40:42.103Z,7.37
2018-02-22T11:43:08.551Z,7.23
2018-02-22T11:45:34.833Z,7.37
2018-02-22T11:48:01.812Z,8.00
2018-02-22T11:50:28.100Z,7.70
2018-02-22T11:52:54.364Z,7.30
2018-02-22T11:55:21.374Z,7.40
2018-02-22T11:57:47.606Z,7.03
2018-02-22T12:00:13.876Z,7.17
2018-02-22T12:02:40.204Z,5.77
2018-02-22T12:05:06.428Z,6.43
2018-02-22T12:07:33.815Z,6.97
2018-02-22T12:10:00.051Z,7.03
2018-02-22T12:12:26.553Z,6.17
2018-02-22T12:14:52.944Z,7.73
2018-02-22T12:17:19.263Z,6.77
2018-02-22T12:19:45.481Z,7.27
2018-02-22T12:22:12.509Z,7.50
2018-02-22T12:24:54.351Z,7.83
2018-02-22T12:27:21.561Z,7.30
2018-02-22T12:29:47.980Z,7.13
2018-02-22T12:32:16.274Z,7.53
2018-02-22T12:34:42.522Z,7.50
2018-02-22T12:37:08.780Z,7.77
2018-02-22T12:39:34.969Z,8.10
2018-02-22T12:42:04.926Z,8.87
2018-02-22T12:44:31.231Z,8.20
2018-02-22T12:46:57.582Z,7.70
2018-02-22T12:49:24.679Z,8.90
2018-02-22T12:51:51.230Z,8.00
2018-02-22T12:54:17.483Z,8.63
2018-02-22T12:56:43.725Z,8.50
2018-02-22T12:59:09.981Z,8.83
2018-02-22T13:01:42.306Z,8.60
2018-02-22T13:04:09.324Z,8.20
2018-02-22T13:06:35.625Z,9.00
2018-02-22T13:09:12.420Z,7.97
2018-02-22T13:11:38.678Z,7.97
2018-02-22T13:14:04.957Z,8.57
2018-02-22T13:16:31.191Z,7.87
2018-02-22T13:18:57.463Z,7.73
2018-02-22T13:21:24.475Z,8.20
2018-02-22T13:23:50.881Z,8.27
2018-02-22T13:26:20.431Z,8.63
2018-02-22T13:28:46.673Z,8.00
2018-02-22T13:31:12.897Z,8.50
2018-02-22T13:33:51.354Z,8.40
2018-02-22T13:36:17.655Z,8.03
2018-02-22T13:38:56.151Z,8.40
2018-02-22T13:41:22.476Z,9.00
2018-02-22T13:44:01.760Z,8.17
2018-02-22T13:46:29.852Z,7.60
2018-02-22T13:49:11.930Z,8.53
2018-02-22T13:51:38.149Z,9.37
2018-02-22T13:54:08.609Z,8.23
2018-02-22T13:56:47.081Z,8.50
2018-02-22T13:59:14.156Z,9.13
2018-02-22T14:01:53.352Z,7.50
2018-02-22T14:04:19.726Z,7.80
2018-02-22T14:06:47.798Z,9.33
2018-02-22T14:09:14.123Z,7.70
2018-02-22T14:11:40.665Z,7.23
2018-02-22T14:14:12.753Z,7.77
2018-02-22T14:16:39.728Z,7.07
2018-02-22T14:19:05.964Z,7.63
2018-02-22T14:21:36.109Z,9.80
2018-02-22T14:24:03.116Z,8.67
2018-02-22T14:26:29.380Z,12.17
2018-02-22T14:28:55.672Z,8.27
2018-02-22T14:31:21.962Z,8.30
2018-02-22T14:33:48.262Z,7.20
2018-02-22T14:36:15.299Z,7.53
2018-02-22T14:38:42.361Z,7.60
2018-02-22T14:41:09.382Z,7.00
2018-02-22T14:43:36.703Z,6.63
2018-02-22T14:46:07.107Z,7.00
2018-02-22T14:48:33.380Z,7.47
2018-02-22T14:51:03.046Z,7.20
2018-02-22T14:53:29.353Z,6.73
2018-02-22T14:56:01.760Z,7.50
2018-02-22T14:58:28.086Z,7.10
2018-02-22T15:01:06.667Z,7.07
2018-02-22T15:03:33.900Z,10.23
2018-02-22T15:06:00.192Z,6.77
2018-02-22T15:08:27.235Z,6.93
2018-02-22T15:10:53.557Z,7.10
2018-02-22T15:13:19.886Z,6.03
2018-02-22T15:15:46.158Z,6.97
2018-02-22T15:18:12.470Z,6.80
2018-02-22T15:20:38.715Z,6.90
2018-02-22T15:23:09.999Z,6.57
2018-02-22T15:25:36.246Z,6.13
2018-02-22T15:28:02.585Z,6.97
2018-02-22T15:30:28.850Z,6.53
2018-02-22T15:32:55.862Z,6.17
2018-02-22T15:35:22.209Z,6.77
2018-02-22T15:37:48.543Z,6.03
2018-02-22T15:40:14.817Z,5.67
2018-02-22T15:42:41.059Z,6.63
2018-02-22T15:45:07.310Z,5.90
2018-02-22T15:47:33.782Z,6.53
2018-02-22T15:50:00.819Z,5.77
2018-02-22T15:52:27.241Z,6.47
2018-02-22T15:54:53.542Z,7.03
2018-02-22T15:57:20.002Z,6.17
2018-02-22T15:59:48.369Z,6.93
2018-02-22T16:02:15.542Z,6.73
2018-02-22T16:04:49.217Z,6.53
2018-02-22T16:07:15.667Z,6.10
2018-02-22T16:09:41.895Z,6.17
2018-02-22T16:12:08.152Z,6.97
2018-02-22T16:14:36.904Z,6.30
2018-02-22T16:17:03.423Z,7.20
2018-02-22T16:19:29.872Z,6.77
2018-02-22T16:21:56.159Z,6.83
2018-02-22T16:24:22.440Z,7.10
2018-02-22T16:26:48.674Z,7.17
2018-02-22T16:29:14.845Z,6.40
2018-02-22T16:32:27.742Z,7.43
2018-02-22T16:34:53.917Z,7.50
2018-02-22T16:37:20.282Z,7.80
2018-02-22T16:39:46.472Z,7.43
2018-02-22T16:42:12.627Z,7.20
2018-02-22T16:44:51.891Z,7.20
2018-02-22T16:47:18.037Z,7.10
2018-02-22T16:49:50.006Z,6.77
2018-02-22T16:52:16.216Z,7.13
2018-02-22T16:54:43.175Z,6.70
2018-02-22T16:57:10.378Z,7.37
2018-02-22T16:59:36.578Z,7.63
2018-02-22T17:02:03.512Z,7.30
2018-02-22T17:04:29.702Z,7.13
2018-02-22T17:06:55.955Z,7.20
2018-02-22T17:09:34.873Z,7.20
2018-02-22T17:12:01.875Z,7.67
2018-02-22T17:14:28.276Z,7.90
2018-02-22T17:16:55.324Z,7.43
2018-02-22T17:19:22.396Z,7.47
2018-02-22T17:21:49.525Z,7.10
2018-02-22T17:24:15.822Z,7.30
2018-02-22T17:26:49.092Z,7.60
2018-02-22T17:29:27.478Z,7.80
2018-02-22T17:31:59.895Z,7.60
2018-02-22T17:34:31.784Z,7.73
2018-02-22T17:36:59.702Z,7.40
2018-02-22T17:39:36.681Z,7.20
2018-02-22T17:42:03.010Z,8.33
2018-02-22T17:44:31.344Z,7.13
2018-02-22T17:46:59.679Z,8.53
2018-02-22T17:49:26.750Z,6.43
2018-02-22T17:51:59.805Z,7.67
2018-02-22T17:54:26.132Z,8.87
2018-02-22T17:56:52.448Z,8.20
2018-02-22T17:59:18.946Z,7.60
2018-02-22T18:01:47.278Z,7.87
2018-02-22T18:04:14.309Z,8.47
2018-02-22T18:06:40.719Z,8.07
2018-02-22T18:09:07.079Z,9.07
2018-02-22T18:11:33.342Z,7.80
2018-02-22T18:13:59.652Z,8.00
2018-02-22T18:16:26.041Z,7.97
2018-02-22T18:18:52.449Z,7.97
2018-02-22T18:24:11.994Z,8.53
2018-02-22T18:26:39.229Z,7.67
2018-02-22T18:29:06.435Z,7.30
2018-02-22T18:31:33.494Z,7.37
2018-02-22T18:34:00.635Z,7.70
2018-02-22T18:36:27.103Z,9.03
2018-02-22T18:38:59.540Z,8.00
2018-02-22T18:41:25.839Z,7.43
2018-02-22T18:43:58.950Z,7.10
2018-02-22T18:46:25.290Z,7.50
2018-02-22T18:51:45.231Z,7.17
2018-02-22T18:54:11.701Z,7.37
2018-02-22T18:56:39.044Z,6.47
2018-02-22T18:59:05.364Z,7.13
2018-02-22T19:01:32.422Z,8.50
2018-02-22T19:03:59.429Z,8.23
2018-02-22T19:06:25.824Z,7.50
2018-02-22T19:08:56.895Z,8.37
2018-02-22T19:11:23.933Z,7.40
2018-02-22T19:13:51.990Z,7.27
2018-02-22T19:16:18.293Z,8.03
2018-02-22T19:18:52.270Z,9.37
2018-02-22T19:21:18.526Z,8.10
2018-02-22T19:23:44.814Z,8.10
2018-02-22T19:26:25.045Z,8.20
2018-02-22T19:28:57.944Z,9.27
2018-02-22T19:31:42.452Z,8.37
2018-02-22T19:34:08.856Z,8.07
2018-02-22T19:36:37.882Z,8.33
2018-02-22T19:39:04.259Z,7.93
2018-02-22T19:41:30.627Z,6.93
2018-02-22T19:43:56.945Z,8.27
2018-02-22T19:46:23.186Z,7.53
2018-02-22T19:48:53.070Z,7.70
2018-02-22T19:51:21.385Z,8.17
2018-02-22T19:53:47.664Z,7.43
2018-02-22T19:56:13.957Z,7.93
2018-02-22T19:58:50.410Z,8.00
2018-02-22T20:01:18.788Z,6.97
2018-02-22T20:03:45.070Z,7.60
2018-02-22T20:06:11.293Z,7.97
2018-02-22T20:08:45.638Z,7.63
2018-02-22T20:11:12.722Z,7.93
2018-02-22T20:13:38.994Z,7.83
2018-02-22T20:16:05.346Z,8.00
2018-02-22T20:18:33.766Z,8.30
2018-02-22T20:21:00.897Z,7.90
2018-02-22T20:23:27.174Z,8.20
2018-02-22T20:25:54.201Z,7.53
2018-02-22T20:28:24.632Z,7.60
2018-02-22T20:30:50.976Z,7.60
2018-02-22T20:33:17.242Z,7.77
2018-02-22T20:35:43.498Z,8.10
2018-02-22T20:38:10.478Z,7.90
2018-02-22T20:40:36.790Z,8.23
2018-02-22T20:43:03.112Z,7.83
2018-02-22T20:45:36.679Z,7.90
2018-02-22T20:48:03.010Z,8.47
2018-02-22T20:50:29.326Z,7.87
2018-02-22T20:52:59.542Z,8.10
2018-02-22T20:55:25.963Z,8.43
2018-02-22T20:58:14.084Z,8.27
2018-02-22T21:00:41.134Z,7.93
2018-02-22T21:03:07.387Z,7.97
2018-02-22T21:05:34.802Z,8.40
2018-02-22T21:08:01.082Z,9.07
2018-02-22T21:10:28.424Z,9.33
2018-02-22T21:12:59.484Z,8.03
2018-02-22T21:15:25.795Z,8.57
2018-02-22T21:17:52.084Z,8.40
2018-02-22T21:20:21.270Z,8.80
2018-02-22T21:22:47.565Z,8.80
2018-02-22T21:25:13.848Z,8.87
2018-02-22T21:27:40.125Z,9.33
2018-02-22T21:30:13.833Z,9.40
2018-02-22T21:32:40.380Z,9.60
2018-02-22T21:35:06.679Z,9.00
2018-02-22T21:37:35.220Z,9.30
2018-02-22T21:40:01.563Z,10.30
2018-02-22T21:42:32.164Z,9.93
2018-02-22T21:44:59.425Z,10.63
2018-02-22T21:47:25.816Z,8.70
2018-02-22T21:49:52.192Z,9.43
2018-02-22T21:52:19.202Z,10.40
2018-02-22T21:54:52.971Z,9.07
2018-02-22T21:57:19.345Z,9.87
2018-02-22T21:59:45.623Z,9.83
2018-02-22T22:02:16.214Z,9.90
2018-02-22T22:04:42.572Z,10.17
2018-02-22T22:07:08.946Z,9.60
2018-02-22T22:09:35.244Z,9.57
2018-02-22T22:12:01.557Z,9.67
2018-02-22T22:14:33.883Z,9.80
2018-02-22T22:17:00.226Z,10.17
2018-02-22T22:19:26.507Z,10.03
2018-02-22T22:21:52.809Z,9.70
2018-02-22T22:24:19.073Z,10.07
2018-02-22T22:26:45.367Z,9.97
2018-02-22T22:29:16.375Z,10.27
2018-02-22T22:31:42.641Z,10.47
2018-02-22T22:34:08.966Z,10.80
2018-02-22T22:36:35.431Z,10.47
2018-02-22T22:39:02.440Z,10.07
2018-02-22T22:41:28.847Z,10.57
2018-02-22T22:43:55.914Z,9.93
2018-02-22T22:46:23.095Z,10.47
2018-02-22T22:48:49.414Z,9.67
2018-02-22T22:51:16.755Z,10.30
2018-02-22T22:53:49.250Z,10.20
2018-02-22T22:56:15.624Z,9.63
2018-02-22T22:58:42.725Z,10.80
2018-02-22T23:01:09.038Z,11.17
2018-02-22T23:03:38.574Z,10.43
2018-02-22T23:06:04.841Z,11.47
2018-02-22T23:08:31.125Z,10.47
2018-02-22T23:11:09.746Z,11.00
2018-02-22T23:13:36.775Z,10.60
2018-02-22T23:16:03.249Z,10.13
2018-02-22T23:18:30.282Z,9.73
2018-02-22T23:20:56.607Z,10.70
2018-02-22T23:23:22.924Z,9.97
2018-02-22T23:25:49.238Z,10.30
2018-02-22T23:28:21.395Z,9.80
2018-02-22T23:30:47.669Z,10.07
2018-02-22T23:33:15.814Z,10.90
2018-02-22T23:35:51.045Z,10.50
2018-02-22T23:38:17.303Z,11.10
2018-02-22T23:41:04.822Z,10.60
2018-02-22T23:43:31.119Z,10.63
2018-02-22T23:45:57.471Z,10.70
2018-02-22T23:48:24.577Z,10.33
2018-02-22T23:50:50.875Z,10.70
2018-02-22T23:53:23.391Z,11.03
2018-02-22T23:55:49.801Z,11.10
2018-02-22T23:58:16.133Z,11.10
